Meath Environmental Platform

Observations for Trim Patrick St

Time AQI Temp °C Hum % Pres Pa CO μg/m³ H₂S μg/m³ NO μg/m³ NO₂ μg/m³ O₃ μg/m³ SO₂ μg/m³ PM1 μg/m³ PM2.5 μg/m³ PM10 μg/m³
Tuesday 4 August 2026
23:09 2 17.3 72 38,460 0.05 3.95 2.02 16.22 64.46 0 4.57 7.86 8.65
23:08 2 17.3 73 38,460 0.06 3.71 2.04 14.62 61.16 0 3.71 7.13 7.84
23:07 2 17.4 72 38,460 0.05 2.69 2.03 16.11 59.9 0 3.71 8.59 9.45
23:06 2 17.3 71 38,460 0.05 3.45 2.16 14.11 58.63 0 3.71 7.23 7.96
23:05 2 17.3 72 38,460 0.04 4.03 2.08 13.14 63.63 0 5.43 7.91 8.71
23:04 2 17.3 71 38,460 0.05 4.18 2.1 14.27 61.9 0 2.86 6.5 7.15
23:03 2 17.3 72 38,460 0.05 4.5 2.04 16.22 62.12 0 2.86 7.16 7.87
23:02 2 17.3 71 38,460 0.05 5.23 2.17 18.76 61.66 0 2.86 7.22 7.94
23:01 2 17.3 71 38,460 0.06 4.97 2.2 15.03 58.69 0 2.86 7.24 7.96
23:00 2 17.3 72 38,460 0.05 4.37 2.1 17.29 58.96 0 4.57 8.6 9.46
22:59 2 17.3 71 38,460 0.06 5.78 2.16 20.22 60.27 0 3.71 7.22 7.94
22:58 2 17.4 71 38,460 0.04 4.68 2.17 21 64.33 0 2.86 5.81 6.39
22:56 2 17.4 72 38,460 0.05 5.44 2.09 14.9 59.13 0 2.86 6.47 7.12
22:50 2 17.3 72 38,460 0.04 5.8 2.15 15.24 63.58 0 3.71 7.92 8.71
22:49 2 17.3 72 38,460 0.05 6.46 2.1 19.15 60.97 0 2.86 6.45 7.1
22:48 2 17.3 72 38,460 0.04 6.2 2.1 26.63 59.77 0 3.71 7.16 7.88
22:47 2 17.3 72 38,460 0.05 5.94 2.01 15.4 60.4 0 5.43 8.57 9.43
22:46 2 17.3 72 38,460 0.04 6.96 2.11 24.14 62.11 0 4.57 8.63 9.5
22:45 2 17.3 72 38,460 0.05 6.67 2.12 17.31 63.69 0 4.57 8.62 9.48
22:44 2 17.3 72 38,460 0.05 5.94 2.1 23.28 60.73 0 4.57 8.6 9.46